Friday, November 17, 2017, 2:30 PM EST
Back to Local

KCXY, Harrisburg Capital City

Location: New Cumberland, PA, United States Lat: 40.217
Local Time: 2:30 PM EST (19:30 GMT) Lon: -76.85
Time Zone: US/Eastern Elev: 347 ft

Show me the last for .
Show Decoded

2017-11-17 13:56 METAR KCXY 171856Z 33008KT 10SM CLR 09/M06 A3014 RMK AO2 SLP209 T00941056 =
2017-11-17 12:56 METAR KCXY 171756Z 30011G16KT 10SM CLR 09/M05 A3016 RMK AO2 SLP215 T00941050
                 10100 20033 58015 =
2017-11-17 11:56 METAR KCXY 171656Z 31010G18KT 10SM CLR 08/M04 A3019 RMK AO2 SLP224 T00831044 =
2017-11-17 10:56 METAR KCXY 171556Z 29009KT 10SM CLR 08/M04 A3020 RMK AO2 SLP229 T00781044 =
2017-11-17 09:56 METAR KCXY 171456Z 32012G19KT 10SM FEW035 07/M04 A3020 RMK AO2 SLP231 T00671044
                 51016 =
2017-11-17 08:56 METAR KCXY 171356Z 30011KT 10SM SCT038 06/M03 A3020 RMK AO2 SLP229 T00611033 =
2017-11-17 07:56 METAR KCXY 171256Z COR 26008KT 10SM SCT040 05/M03 A3019 RMK AO2 SLP226 T00501033
                 =
2017-11-17 06:56 METAR KCXY 171156Z COR 28007KT 10SM SCT040 04/M03 A3016 RMK AO2 SLP215 T00391033
                 10072 20039 53021 =
2017-11-17 05:56 METAR KCXY 171056Z AUTO 31009KT 10SM BKN039 04/M04 A3013 RMK AO2 SLP207
                 T00441039 =
2017-11-17 04:56 METAR KCXY 170956Z AUTO 33015G23KT 10SM BKN039 06/M03 A3010 RMK AO2 SLP197
                 T00561033 =
2017-11-17 03:56 METAR KCXY 170856Z AUTO 32008KT 10SM BKN039 06/M03 A3009 RMK AO2 PK WND
                 33026/0805 SLP193 T00611033 51017 =
2017-11-17 02:56 METAR KCXY 170756Z AUTO 32015G21KT 10SM CLR 06/M03 A3009 RMK AO2 SLP192
                 T00611033 =
2017-11-17 01:56 METAR KCXY 170656Z AUTO 32013G20KT 10SM FEW040 07/M02 A3006 RMK AO2 SLP182
                 T00671022 =
2017-11-17 00:56 METAR KCXY 170556Z AUTO 30017G25KT 10SM BKN043 07/M03 A3004 RMK AO2 PK WND
                 31027/0519 SLP176 T00721028 10078 20072 51008 =
2017-11-16 23:56 METAR KCXY 170456Z AUTO 30015G24KT 10SM FEW046 07/M03 A3004 RMK AO2 SLP175
                 T00721028 401440067 =
2017-11-16 22:56 METAR KCXY 170356Z AUTO 30014G23KT 10SM BKN050 07/M03 A3003 RMK AO2 SLP171
                 T00721028 =
2017-11-16 21:56 METAR KCXY 170256Z AUTO 28013G21KT 10SM BKN050 07/M02 A3002 RMK AO2 SLP167
                 T00721022 50003 =
2017-11-16 20:56 METAR KCXY 170156Z 28010G20KT 10SM BKN060 07/M02 A3003 RMK AO2 PK WND 29028/0133
                 SLP170 T00721022 =
2017-11-16 19:56 METAR KCXY 170056Z 30014G23KT 10SM BKN047 BKN055 08/M02 A3002 RMK AO2 SLP169
                 T00781022 =
2017-11-16 18:56 METAR KCXY 162356Z 30010KT 10SM FEW048 08/M02 A3001 RMK AO2 PK WND 30030/2259
                 SLP165 T00781022 10139 20078 51020 =
2017-11-16 17:56 METAR KCXY 162256Z 30015G24KT 10SM SCT049 08/M02 A3000 RMK AO2 SLP159 T00831022
                 =
2017-11-16 16:56 METAR KCXY 162156Z 28013G23KT 10SM OVC050 09/M02 A2997 RMK AO2 PK WND 29026/2120
                 SLP152 T00891017 =
2017-11-16 15:56 METAR KCXY 162056Z 29014G24KT 10SM OVC050 10/M01 A2995 RMK AO2 PK WND 28026/2024
                 SLP144 T01001011 53037 =
2017-11-16 14:56 METAR KCXY 161956Z 30016G22KT 10SM OVC055 11/M01 A2991 RMK AO2 PK WND 28029/1905
                 SLP130 T01111011 =

Support USWX by starting your Amazon purchase here.